sensor_id;sensor_type;location;lat;lon;timestamp;P1;durP1;ratioP1;P2;durP2;ratioP2
13560;SDS011;6852;51.686;5.314;2023-07-16T00:00:00;3.43;;;1.70;;
13560;SDS011;6852;51.686;5.314;2023-07-16T00:02:27;3.17;;;1.40;;
13560;SDS011;6852;51.686;5.314;2023-07-16T00:04:54;7.50;;;1.13;;
13560;SDS011;6852;51.686;5.314;2023-07-16T00:07:21;3.63;;;1.43;;
13560;SDS011;6852;51.686;5.314;2023-07-16T00:09:48;3.30;;;1.63;;
13560;SDS011;6852;51.686;5.314;2023-07-16T00:12:15;8.50;;;1.50;;
13560;SDS011;6852;51.686;5.314;2023-07-16T00:14:42;4.00;;;1.50;;
13560;SDS011;6852;51.686;5.314;2023-07-16T00:17:09;3.20;;;1.60;;
13560;SDS011;6852;51.686;5.314;2023-07-16T00:19:36;8.17;;;2.67;;
13560;SDS011;6852;51.686;5.314;2023-07-16T00:22:03;5.13;;;1.50;;
13560;SDS011;6852;51.686;5.314;2023-07-16T00:24:30;3.67;;;1.87;;
13560;SDS011;6852;51.686;5.314;2023-07-16T00:26:57;6.70;;;1.90;;
13560;SDS011;6852;51.686;5.314;2023-07-16T00:29:24;4.17;;;1.50;;
13560;SDS011;6852;51.686;5.314;2023-07-16T00:31:51;6.27;;;1.63;;
13560;SDS011;6852;51.686;5.314;2023-07-16T00:34:18;7.10;;;2.40;;
13560;SDS011;6852;51.686;5.314;2023-07-16T00:36:45;3.67;;;1.60;;
13560;SDS011;6852;51.686;5.314;2023-07-16T00:39:12;6.30;;;1.70;;
13560;SDS011;6852;51.686;5.314;2023-07-16T00:41:39;4.50;;;1.60;;
13560;SDS011;6852;51.686;5.314;2023-07-16T00:44:06;4.43;;;1.37;;
13560;SDS011;6852;51.686;5.314;2023-07-16T00:46:33;5.50;;;1.43;;
13560;SDS011;6852;51.686;5.314;2023-07-16T00:49:00;5.03;;;1.43;;
13560;SDS011;6852;51.686;5.314;2023-07-16T00:51:28;5.73;;;1.40;;
13560;SDS011;6852;51.686;5.314;2023-07-16T00:53:56;4.90;;;1.67;;
13560;SDS011;6852;51.686;5.314;2023-07-16T00:56:23;4.53;;;1.50;;
13560;SDS011;6852;51.686;5.314;2023-07-16T00:58:50;5.53;;;2.30;;
13560;SDS011;6852;51.686;5.314;2023-07-16T01:01:17;4.27;;;1.97;;
13560;SDS011;6852;51.686;5.314;2023-07-16T01:03:44;4.87;;;1.80;;
13560;SDS011;6852;51.686;5.314;2023-07-16T01:06:12;6.27;;;1.80;;
13560;SDS011;6852;51.686;5.314;2023-07-16T01:11:33;5.37;;;1.70;;
13560;SDS011;6852;51.686;5.314;2023-07-16T01:14:04;2.80;;;1.47;;
13560;SDS011;6852;51.686;5.314;2023-07-16T01:16:33;5.53;;;1.57;;
13560;SDS011;6852;51.686;5.314;2023-07-16T01:19:00;7.43;;;1.80;;
13560;SDS011;6852;51.686;5.314;2023-07-16T01:21:29;7.27;;;2.43;;
13560;SDS011;6852;51.686;5.314;2023-07-16T01:26:56;5.80;;;2.00;;
13560;SDS011;6852;51.686;5.314;2023-07-16T01:32:32;6.13;;;1.80;;
13560;SDS011;6852;51.686;5.314;2023-07-16T01:35:00;5.23;;;1.90;;
13560;SDS011;6852;51.686;5.314;2023-07-16T01:37:29;4.57;;;1.70;;
13560;SDS011;6852;51.686;5.314;2023-07-16T01:39:56;4.93;;;1.87;;
13560;SDS011;6852;51.686;5.314;2023-07-16T01:42:23;5.53;;;1.87;;
13560;SDS011;6852;51.686;5.314;2023-07-16T01:44:50;5.53;;;2.07;;
13560;SDS011;6852;51.686;5.314;2023-07-16T01:49:56;5.57;;;1.77;;
13560;SDS011;6852;51.686;5.314;2023-07-16T01:52:22;9.37;;;2.83;;
13560;SDS011;6852;51.686;5.314;2023-07-16T01:54:49;5.60;;;2.27;;
13560;SDS011;6852;51.686;5.314;2023-07-16T01:57:16;5.57;;;2.57;;
13560;SDS011;6852;51.686;5.314;2023-07-16T01:59:43;5.90;;;2.00;;
13560;SDS011;6852;51.686;5.314;2023-07-16T02:02:11;4.00;;;2.10;;
13560;SDS011;6852;51.686;5.314;2023-07-16T02:04:38;5.03;;;1.80;;
13560;SDS011;6852;51.686;5.314;2023-07-16T02:07:04;5.40;;;2.03;;
13560;SDS011;6852;51.686;5.314;2023-07-16T02:09:33;5.97;;;1.83;;
13560;SDS011;6852;51.686;5.314;2023-07-16T02:12:00;7.27;;;1.70;;
13560;SDS011;6852;51.686;5.314;2023-07-16T02:14:27;3.70;;;1.90;;
13560;SDS011;6852;51.686;5.314;2023-07-16T02:16:54;7.60;;;1.90;;
13560;SDS011;6852;51.686;5.314;2023-07-16T02:19:21;5.37;;;1.77;;
13560;SDS011;6852;51.686;5.314;2023-07-16T02:21:48;4.43;;;1.67;;
13560;SDS011;6852;51.686;5.314;2023-07-16T02:24:15;5.60;;;1.83;;
13560;SDS011;6852;51.686;5.314;2023-07-16T02:26:41;8.00;;;2.33;;
13560;SDS011;6852;51.686;5.314;2023-07-16T02:29:09;5.77;;;1.93;;
13560;SDS011;6852;51.686;5.314;2023-07-16T02:31:36;3.87;;;1.90;;
13560;SDS011;6852;51.686;5.314;2023-07-16T02:34:03;4.10;;;1.43;;
13560;SDS011;6852;51.686;5.314;2023-07-16T02:36:29;5.00;;;1.70;;
13560;SDS011;6852;51.686;5.314;2023-07-16T02:38:56;7.17;;;1.80;;
13560;SDS011;6852;51.686;5.314;2023-07-16T02:41:23;5.83;;;2.00;;
13560;SDS011;6852;51.686;5.314;2023-07-16T02:43:58;6.77;;;1.77;;
13560;SDS011;6852;51.686;5.314;2023-07-16T02:46:26;3.37;;;2.07;;
13560;SDS011;6852;51.686;5.314;2023-07-16T02:48:53;2.40;;;1.50;;
13560;SDS011;6852;51.686;5.314;2023-07-16T02:51:20;9.77;;;2.47;;
13560;SDS011;6852;51.686;5.314;2023-07-16T02:53:47;4.27;;;2.07;;
13560;SDS011;6852;51.686;5.314;2023-07-16T02:56:14;6.37;;;1.93;;
13560;SDS011;6852;51.686;5.314;2023-07-16T02:58:43;5.30;;;2.23;;
13560;SDS011;6852;51.686;5.314;2023-07-16T03:01:10;8.13;;;2.63;;
13560;SDS011;6852;51.686;5.314;2023-07-16T03:03:38;4.07;;;2.33;;
13560;SDS011;6852;51.686;5.314;2023-07-16T03:06:05;5.13;;;1.90;;
13560;SDS011;6852;51.686;5.314;2023-07-16T03:08:31;5.33;;;2.07;;
13560;SDS011;6852;51.686;5.314;2023-07-16T03:10:59;3.80;;;2.00;;
13560;SDS011;6852;51.686;5.314;2023-07-16T03:13:26;7.57;;;2.17;;
13560;SDS011;6852;51.686;5.314;2023-07-16T03:15:53;7.63;;;2.10;;
13560;SDS011;6852;51.686;5.314;2023-07-16T03:18:20;9.30;;;2.33;;
13560;SDS011;6852;51.686;5.314;2023-07-16T03:20:47;4.97;;;2.13;;
13560;SDS011;6852;51.686;5.314;2023-07-16T03:23:14;9.43;;;2.67;;
13560;SDS011;6852;51.686;5.314;2023-07-16T03:25:41;7.53;;;2.30;;
13560;SDS011;6852;51.686;5.314;2023-07-16T03:28:08;5.30;;;1.70;;
13560;SDS011;6852;51.686;5.314;2023-07-16T03:30:34;5.67;;;2.17;;
13560;SDS011;6852;51.686;5.314;2023-07-16T03:33:04;5.00;;;2.23;;
13560;SDS011;6852;51.686;5.314;2023-07-16T03:35:31;7.47;;;2.40;;
13560;SDS011;6852;51.686;5.314;2023-07-16T03:37:58;4.23;;;2.20;;
13560;SDS011;6852;51.686;5.314;2023-07-16T03:40:25;4.67;;;1.83;;
13560;SDS011;6852;51.686;5.314;2023-07-16T03:42:53;5.20;;;1.87;;
13560;SDS011;6852;51.686;5.314;2023-07-16T03:45:20;8.67;;;2.47;;
13560;SDS011;6852;51.686;5.314;2023-07-16T03:47:47;5.13;;;2.30;;
13560;SDS011;6852;51.686;5.314;2023-07-16T03:50:14;5.47;;;2.60;;
13560;SDS011;6852;51.686;5.314;2023-07-16T03:52:41;6.90;;;2.63;;
13560;SDS011;6852;51.686;5.314;2023-07-16T03:55:09;8.63;;;2.50;;
13560;SDS011;6852;51.686;5.314;2023-07-16T03:57:36;5.17;;;2.20;;
13560;SDS011;6852;51.686;5.314;2023-07-16T04:00:03;5.03;;;2.57;;
13560;SDS011;6852;51.686;5.314;2023-07-16T04:02:34;7.40;;;2.53;;
13560;SDS011;6852;51.686;5.314;2023-07-16T04:05:01;7.37;;;2.67;;
13560;SDS011;6852;51.686;5.314;2023-07-16T04:07:29;4.90;;;2.30;;
13560;SDS011;6852;51.686;5.314;2023-07-16T04:09:56;6.93;;;2.80;;
13560;SDS011;6852;51.686;5.314;2023-07-16T04:12:23;6.00;;;2.70;;
13560;SDS011;6852;51.686;5.314;2023-07-16T04:14:50;8.47;;;2.67;;
13560;SDS011;6852;51.686;5.314;2023-07-16T04:17:22;5.03;;;2.40;;
13560;SDS011;6852;51.686;5.314;2023-07-16T04:19:49;5.73;;;2.77;;
13560;SDS011;6852;51.686;5.314;2023-07-16T04:22:15;7.60;;;2.80;;
13560;SDS011;6852;51.686;5.314;2023-07-16T04:24:43;6.00;;;3.00;;
13560;SDS011;6852;51.686;5.314;2023-07-16T04:27:09;6.80;;;3.00;;
13560;SDS011;6852;51.686;5.314;2023-07-16T04:29:36;4.20;;;2.60;;
13560;SDS011;6852;51.686;5.314;2023-07-16T04:32:03;7.60;;;3.17;;
13560;SDS011;6852;51.686;5.314;2023-07-16T04:34:30;7.97;;;2.60;;
13560;SDS011;6852;51.686;5.314;2023-07-16T04:36:57;5.60;;;2.97;;
13560;SDS011;6852;51.686;5.314;2023-07-16T04:39:24;6.33;;;2.80;;
13560;SDS011;6852;51.686;5.314;2023-07-16T04:41:51;7.73;;;2.90;;
13560;SDS011;6852;51.686;5.314;2023-07-16T04:44:18;6.47;;;3.00;;
13560;SDS011;6852;51.686;5.314;2023-07-16T04:46:45;7.60;;;3.43;;
13560;SDS011;6852;51.686;5.314;2023-07-16T04:49:11;6.57;;;2.70;;
13560;SDS011;6852;51.686;5.314;2023-07-16T04:51:38;7.50;;;3.03;;
13560;SDS011;6852;51.686;5.314;2023-07-16T04:54:05;9.00;;;3.10;;
13560;SDS011;6852;51.686;5.314;2023-07-16T04:56:32;7.50;;;3.07;;
13560;SDS011;6852;51.686;5.314;2023-07-16T04:58:59;4.13;;;2.97;;
13560;SDS011;6852;51.686;5.314;2023-07-16T05:01:25;7.77;;;3.23;;
13560;SDS011;6852;51.686;5.314;2023-07-16T05:03:53;10.90;;;3.37;;
13560;SDS011;6852;51.686;5.314;2023-07-16T05:06:22;6.53;;;3.53;;
13560;SDS011;6852;51.686;5.314;2023-07-16T05:08:49;5.60;;;2.90;;
13560;SDS011;6852;51.686;5.314;2023-07-16T05:11:16;5.50;;;2.90;;
13560;SDS011;6852;51.686;5.314;2023-07-16T05:13:43;7.80;;;3.60;;
13560;SDS011;6852;51.686;5.314;2023-07-16T05:16:09;5.33;;;3.03;;
13560;SDS011;6852;51.686;5.314;2023-07-16T05:18:36;5.93;;;3.23;;
13560;SDS011;6852;51.686;5.314;2023-07-16T05:21:03;6.43;;;3.37;;
13560;SDS011;6852;51.686;5.314;2023-07-16T05:23:30;4.80;;;2.87;;
13560;SDS011;6852;51.686;5.314;2023-07-16T05:25:56;6.47;;;3.50;;
13560;SDS011;6852;51.686;5.314;2023-07-16T05:28:23;6.20;;;3.07;;
13560;SDS011;6852;51.686;5.314;2023-07-16T05:31:00;8.57;;;3.30;;
13560;SDS011;6852;51.686;5.314;2023-07-16T05:33:28;6.77;;;3.60;;
13560;SDS011;6852;51.686;5.314;2023-07-16T05:35:55;6.80;;;3.83;;
13560;SDS011;6852;51.686;5.314;2023-07-16T05:38:22;5.13;;;3.47;;
13560;SDS011;6852;51.686;5.314;2023-07-16T05:40:49;5.67;;;4.00;;
13560;SDS011;6852;51.686;5.314;2023-07-16T05:43:16;7.57;;;3.60;;
13560;SDS011;6852;51.686;5.314;2023-07-16T05:45:43;7.63;;;3.67;;
13560;SDS011;6852;51.686;5.314;2023-07-16T05:48:10;6.13;;;3.40;;
13560;SDS011;6852;51.686;5.314;2023-07-16T05:50:38;7.67;;;3.50;;
13560;SDS011;6852;51.686;5.314;2023-07-16T05:53:05;9.03;;;4.53;;
13560;SDS011;6852;51.686;5.314;2023-07-16T05:55:31;7.83;;;3.80;;
13560;SDS011;6852;51.686;5.314;2023-07-16T05:57:58;8.13;;;3.80;;
13560;SDS011;6852;51.686;5.314;2023-07-16T06:00:25;11.90;;;4.00;;
13560;SDS011;6852;51.686;5.314;2023-07-16T06:02:52;8.37;;;4.30;;
13560;SDS011;6852;51.686;5.314;2023-07-16T06:05:19;7.43;;;3.90;;
13560;SDS011;6852;51.686;5.314;2023-07-16T06:07:46;7.23;;;4.00;;
13560;SDS011;6852;51.686;5.314;2023-07-16T06:10:13;6.03;;;3.70;;
13560;SDS011;6852;51.686;5.314;2023-07-16T06:12:40;5.17;;;3.47;;
13560;SDS011;6852;51.686;5.314;2023-07-16T06:15:07;7.83;;;3.80;;
13560;SDS011;6852;51.686;5.314;2023-07-16T06:17:34;7.07;;;3.73;;
13560;SDS011;6852;51.686;5.314;2023-07-16T06:20:02;9.27;;;4.03;;
13560;SDS011;6852;51.686;5.314;2023-07-16T06:22:29;10.50;;;4.87;;
13560;SDS011;6852;51.686;5.314;2023-07-16T06:24:56;9.00;;;4.03;;
13560;SDS011;6852;51.686;5.314;2023-07-16T06:27:23;8.00;;;4.27;;
13560;SDS011;6852;51.686;5.314;2023-07-16T06:29:50;10.13;;;3.90;;
13560;SDS011;6852;51.686;5.314;2023-07-16T06:32:16;8.23;;;4.40;;
13560;SDS011;6852;51.686;5.314;2023-07-16T06:34:43;9.77;;;4.60;;
13560;SDS011;6852;51.686;5.314;2023-07-16T06:37:10;9.03;;;4.67;;
13560;SDS011;6852;51.686;5.314;2023-07-16T06:39:37;6.57;;;3.97;;
13560;SDS011;6852;51.686;5.314;2023-07-16T06:42:04;19.17;;;4.07;;
13560;SDS011;6852;51.686;5.314;2023-07-16T06:44:31;8.43;;;4.40;;
13560;SDS011;6852;51.686;5.314;2023-07-16T06:46:58;9.07;;;4.27;;
13560;SDS011;6852;51.686;5.314;2023-07-16T06:49:25;4.82;;;3.72;;
13560;SDS011;6852;51.686;5.314;2023-07-16T06:51:52;9.27;;;3.97;;
13560;SDS011;6852;51.686;5.314;2023-07-16T06:54:19;8.70;;;4.30;;
13560;SDS011;6852;51.686;5.314;2023-07-16T06:56:46;7.13;;;4.47;;
13560;SDS011;6852;51.686;5.314;2023-07-16T06:59:13;7.67;;;4.13;;
13560;SDS011;6852;51.686;5.314;2023-07-16T07:01:39;7.40;;;3.93;;
13560;SDS011;6852;51.686;5.314;2023-07-16T07:04:06;9.80;;;4.60;;
13560;SDS011;6852;51.686;5.314;2023-07-16T07:06:33;10.37;;;4.70;;
13560;SDS011;6852;51.686;5.314;2023-07-16T07:09:00;9.20;;;4.23;;
13560;SDS011;6852;51.686;5.314;2023-07-16T07:11:27;9.23;;;5.30;;
13560;SDS011;6852;51.686;5.314;2023-07-16T07:13:54;5.93;;;4.13;;
13560;SDS011;6852;51.686;5.314;2023-07-16T07:16:23;8.63;;;4.47;;
13560;SDS011;6852;51.686;5.314;2023-07-16T07:18:50;8.60;;;4.27;;
13560;SDS011;6852;51.686;5.314;2023-07-16T07:21:17;8.87;;;4.07;;
13560;SDS011;6852;51.686;5.314;2023-07-16T07:23:43;9.43;;;4.50;;
13560;SDS011;6852;51.686;5.314;2023-07-16T07:26:10;8.13;;;4.60;;
13560;SDS011;6852;51.686;5.314;2023-07-16T07:28:37;8.47;;;4.43;;
13560;SDS011;6852;51.686;5.314;2023-07-16T07:31:04;7.00;;;3.63;;
13560;SDS011;6852;51.686;5.314;2023-07-16T07:33:31;9.77;;;4.40;;
13560;SDS011;6852;51.686;5.314;2023-07-16T07:35:58;11.10;;;4.63;;
13560;SDS011;6852;51.686;5.314;2023-07-16T07:38:25;12.17;;;4.90;;
13560;SDS011;6852;51.686;5.314;2023-07-16T07:40:52;9.03;;;4.67;;
13560;SDS011;6852;51.686;5.314;2023-07-16T07:43:19;9.80;;;4.10;;
13560;SDS011;6852;51.686;5.314;2023-07-16T07:45:46;8.43;;;4.70;;
13560;SDS011;6852;51.686;5.314;2023-07-16T07:48:13;11.60;;;5.03;;
13560;SDS011;6852;51.686;5.314;2023-07-16T07:50:40;9.33;;;5.10;;
13560;SDS011;6852;51.686;5.314;2023-07-16T07:53:06;9.07;;;3.60;;
13560;SDS011;6852;51.686;5.314;2023-07-16T07:55:34;8.50;;;4.63;;
13560;SDS011;6852;51.686;5.314;2023-07-16T07:58:03;9.20;;;4.13;;
13560;SDS011;6852;51.686;5.314;2023-07-16T08:00:30;9.00;;;4.03;;
13560;SDS011;6852;51.686;5.314;2023-07-16T08:02:57;9.17;;;4.53;;
13560;SDS011;6852;51.686;5.314;2023-07-16T08:05:24;9.73;;;4.63;;
13560;SDS011;6852;51.686;5.314;2023-07-16T08:07:51;7.30;;;4.23;;
13560;SDS011;6852;51.686;5.314;2023-07-16T08:10:19;7.97;;;3.83;;
13560;SDS011;6852;51.686;5.314;2023-07-16T08:12:46;11.27;;;4.77;;
13560;SDS011;6852;51.686;5.314;2023-07-16T08:15:13;9.03;;;4.10;;
13560;SDS011;6852;51.686;5.314;2023-07-16T08:17:42;9.00;;;4.63;;
13560;SDS011;6852;51.686;5.314;2023-07-16T08:20:09;8.20;;;4.43;;
13560;SDS011;6852;51.686;5.314;2023-07-16T08:22:37;6.30;;;3.60;;
13560;SDS011;6852;51.686;5.314;2023-07-16T08:25:05;7.43;;;4.43;;
13560;SDS011;6852;51.686;5.314;2023-07-16T08:27:32;9.63;;;4.43;;
13560;SDS011;6852;51.686;5.314;2023-07-16T08:30:00;8.97;;;4.23;;
13560;SDS011;6852;51.686;5.314;2023-07-16T08:32:27;11.17;;;4.20;;
13560;SDS011;6852;51.686;5.314;2023-07-16T08:34:54;9.87;;;3.93;;
13560;SDS011;6852;51.686;5.314;2023-07-16T08:37:21;7.30;;;3.80;;
13560;SDS011;6852;51.686;5.314;2023-07-16T08:39:50;7.37;;;4.07;;
13560;SDS011;6852;51.686;5.314;2023-07-16T08:42:18;7.20;;;4.40;;
13560;SDS011;6852;51.686;5.314;2023-07-16T08:44:48;8.93;;;4.10;;
13560;SDS011;6852;51.686;5.314;2023-07-16T08:47:16;9.23;;;4.40;;
13560;SDS011;6852;51.686;5.314;2023-07-16T08:49:55;7.43;;;4.17;;
13560;SDS011;6852;51.686;5.314;2023-07-16T08:52:24;5.63;;;4.00;;
13560;SDS011;6852;51.686;5.314;2023-07-16T08:54:54;6.07;;;3.90;;
13560;SDS011;6852;51.686;5.314;2023-07-16T08:57:21;7.20;;;4.23;;
13560;SDS011;6852;51.686;5.314;2023-07-16T08:59:49;6.30;;;4.20;;
13560;SDS011;6852;51.686;5.314;2023-07-16T09:02:17;11.60;;;4.40;;
13560;SDS011;6852;51.686;5.314;2023-07-16T09:04:48;10.57;;;3.97;;
13560;SDS011;6852;51.686;5.314;2023-07-16T09:07:15;7.47;;;4.30;;
13560;SDS011;6852;51.686;5.314;2023-07-16T09:09:42;6.00;;;3.47;;
13560;SDS011;6852;51.686;5.314;2023-07-16T09:12:12;7.67;;;3.97;;
13560;SDS011;6852;51.686;5.314;2023-07-16T09:14:42;5.40;;;3.33;;
13560;SDS011;6852;51.686;5.314;2023-07-16T09:17:10;10.20;;;4.47;;
13560;SDS011;6852;51.686;5.314;2023-07-16T09:19:37;8.70;;;4.43;;
13560;SDS011;6852;51.686;5.314;2023-07-16T09:22:04;7.97;;;4.13;;
13560;SDS011;6852;51.686;5.314;2023-07-16T09:24:32;5.70;;;3.70;;
13560;SDS011;6852;51.686;5.314;2023-07-16T09:26:59;7.93;;;3.77;;
13560;SDS011;6852;51.686;5.314;2023-07-16T09:29:28;4.90;;;3.67;;
13560;SDS011;6852;51.686;5.314;2023-07-16T09:34:26;11.33;;;3.97;;
13560;SDS011;6852;51.686;5.314;2023-07-16T09:36:53;11.43;;;4.27;;
13560;SDS011;6852;51.686;5.314;2023-07-16T09:39:20;8.83;;;3.53;;
13560;SDS011;6852;51.686;5.314;2023-07-16T09:41:49;9.00;;;3.80;;
13560;SDS011;6852;51.686;5.314;2023-07-16T09:44:16;7.43;;;3.90;;
13560;SDS011;6852;51.686;5.314;2023-07-16T09:46:44;4.73;;;3.67;;
13560;SDS011;6852;51.686;5.314;2023-07-16T09:49:14;6.00;;;4.13;;
13560;SDS011;6852;51.686;5.314;2023-07-16T09:51:42;5.13;;;3.57;;
13560;SDS011;6852;51.686;5.314;2023-07-16T09:54:13;10.67;;;3.73;;
13560;SDS011;6852;51.686;5.314;2023-07-16T09:56:44;4.30;;;3.17;;
13560;SDS011;6852;51.686;5.314;2023-07-16T09:59:15;8.37;;;3.70;;
13560;SDS011;6852;51.686;5.314;2023-07-16T10:01:44;5.00;;;3.17;;
13560;SDS011;6852;51.686;5.314;2023-07-16T10:04:14;6.87;;;3.60;;
13560;SDS011;6852;51.686;5.314;2023-07-16T10:14:41;7.83;;;3.47;;
13560;SDS011;6852;51.686;5.314;2023-07-16T10:17:16;6.20;;;3.43;;
13560;SDS011;6852;51.686;5.314;2023-07-16T10:19:57;9.57;;;3.93;;
13560;SDS011;6852;51.686;5.314;2023-07-16T10:22:39;6.70;;;3.30;;
13560;SDS011;6852;51.686;5.314;2023-07-16T10:27:46;9.90;;;3.77;;
13560;SDS011;6852;51.686;5.314;2023-07-16T10:30:14;6.37;;;3.70;;
13560;SDS011;6852;51.686;5.314;2023-07-16T10:32:41;6.57;;;3.73;;
13560;SDS011;6852;51.686;5.314;2023-07-16T10:35:09;7.30;;;3.90;;
13560;SDS011;6852;51.686;5.314;2023-07-16T10:37:37;7.23;;;3.47;;
13560;SDS011;6852;51.686;5.314;2023-07-16T10:40:05;6.37;;;3.97;;
13560;SDS011;6852;51.686;5.314;2023-07-16T10:42:35;7.60;;;3.97;;
13560;SDS011;6852;51.686;5.314;2023-07-16T10:45:05;5.17;;;3.03;;
13560;SDS011;6852;51.686;5.314;2023-07-16T10:47:37;7.77;;;4.33;;
13560;SDS011;6852;51.686;5.314;2023-07-16T10:50:08;9.40;;;3.77;;
13560;SDS011;6852;51.686;5.314;2023-07-16T10:52:36;7.83;;;3.70;;
13560;SDS011;6852;51.686;5.314;2023-07-16T10:55:04;6.43;;;4.70;;
13560;SDS011;6852;51.686;5.314;2023-07-16T10:57:31;5.70;;;3.63;;
13560;SDS011;6852;51.686;5.314;2023-07-16T10:59:58;8.23;;;3.27;;
13560;SDS011;6852;51.686;5.314;2023-07-16T11:02:26;8.57;;;3.90;;
13560;SDS011;6852;51.686;5.314;2023-07-16T11:04:54;10.73;;;4.30;;
13560;SDS011;6852;51.686;5.314;2023-07-16T11:07:23;9.30;;;3.77;;
13560;SDS011;6852;51.686;5.314;2023-07-16T11:09:51;7.00;;;3.73;;
13560;SDS011;6852;51.686;5.314;2023-07-16T11:12:23;5.77;;;3.93;;
13560;SDS011;6852;51.686;5.314;2023-07-16T11:14:51;8.30;;;3.50;;
13560;SDS011;6852;51.686;5.314;2023-07-16T11:17:19;7.43;;;3.60;;
13560;SDS011;6852;51.686;5.314;2023-07-16T11:19:49;9.03;;;3.50;;
13560;SDS011;6852;51.686;5.314;2023-07-16T11:22:18;8.43;;;4.30;;
13560;SDS011;6852;51.686;5.314;2023-07-16T11:24:46;7.87;;;3.40;;
13560;SDS011;6852;51.686;5.314;2023-07-16T11:27:18;6.73;;;3.70;;
13560;SDS011;6852;51.686;5.314;2023-07-16T11:29:53;7.73;;;4.40;;
13560;SDS011;6852;51.686;5.314;2023-07-16T11:32:31;7.63;;;3.53;;
13560;SDS011;6852;51.686;5.314;2023-07-16T11:35:10;8.30;;;3.57;;
13560;SDS011;6852;51.686;5.314;2023-07-16T11:37:45;5.37;;;3.40;;
13560;SDS011;6852;51.686;5.314;2023-07-16T11:40:17;5.20;;;3.33;;
13560;SDS011;6852;51.686;5.314;2023-07-16T11:42:45;6.13;;;4.27;;
13560;SDS011;6852;51.686;5.314;2023-07-16T11:45:19;9.63;;;3.50;;
13560;SDS011;6852;51.686;5.314;2023-07-16T11:47:47;6.30;;;3.47;;
13560;SDS011;6852;51.686;5.314;2023-07-16T11:50:14;7.07;;;4.13;;
13560;SDS011;6852;51.686;5.314;2023-07-16T11:52:42;10.30;;;4.20;;
13560;SDS011;6852;51.686;5.314;2023-07-16T11:55:08;7.20;;;3.60;;
13560;SDS011;6852;51.686;5.314;2023-07-16T11:57:35;8.13;;;4.27;;
13560;SDS011;6852;51.686;5.314;2023-07-16T12:00:03;6.03;;;3.30;;
13560;SDS011;6852;51.686;5.314;2023-07-16T12:02:31;9.57;;;4.00;;
13560;SDS011;6852;51.686;5.314;2023-07-16T12:04:59;7.00;;;3.30;;
13560;SDS011;6852;51.686;5.314;2023-07-16T12:07:33;8.53;;;4.20;;
13560;SDS011;6852;51.686;5.314;2023-07-16T12:10:04;6.20;;;3.93;;
13560;SDS011;6852;51.686;5.314;2023-07-16T12:12:33;8.93;;;4.17;;
13560;SDS011;6852;51.686;5.314;2023-07-16T12:15:04;10.83;;;3.53;;
13560;SDS011;6852;51.686;5.314;2023-07-16T12:17:32;7.10;;;4.37;;
13560;SDS011;6852;51.686;5.314;2023-07-16T12:20:00;8.40;;;3.77;;
13560;SDS011;6852;51.686;5.314;2023-07-16T12:22:27;6.33;;;3.50;;
13560;SDS011;6852;51.686;5.314;2023-07-16T12:24:54;7.30;;;3.63;;
13560;SDS011;6852;51.686;5.314;2023-07-16T12:27:21;6.03;;;3.20;;
13560;SDS011;6852;51.686;5.314;2023-07-16T12:29:48;5.53;;;3.30;;
13560;SDS011;6852;51.686;5.314;2023-07-16T12:32:15;6.57;;;3.77;;
13560;SDS011;6852;51.686;5.314;2023-07-16T12:34:41;7.17;;;3.70;;
13560;SDS011;6852;51.686;5.314;2023-07-16T12:37:08;8.80;;;4.40;;
13560;SDS011;6852;51.686;5.314;2023-07-16T12:39:36;10.07;;;4.07;;
13560;SDS011;6852;51.686;5.314;2023-07-16T12:42:03;6.70;;;3.73;;
13560;SDS011;6852;51.686;5.314;2023-07-16T12:44:30;8.23;;;3.70;;
13560;SDS011;6852;51.686;5.314;2023-07-16T12:46:57;6.13;;;3.70;;
13560;SDS011;6852;51.686;5.314;2023-07-16T12:49:24;5.37;;;3.07;;
13560;SDS011;6852;51.686;5.314;2023-07-16T12:51:51;8.37;;;3.40;;
13560;SDS011;6852;51.686;5.314;2023-07-16T12:54:18;6.03;;;3.23;;
13560;SDS011;6852;51.686;5.314;2023-07-16T12:56:45;4.43;;;2.90;;
13560;SDS011;6852;51.686;5.314;2023-07-16T12:59:12;3.77;;;2.80;;
13560;SDS011;6852;51.686;5.314;2023-07-16T13:01:39;4.40;;;2.83;;
13560;SDS011;6852;51.686;5.314;2023-07-16T13:04:06;4.27;;;2.73;;
13560;SDS011;6852;51.686;5.314;2023-07-16T13:06:33;5.63;;;3.13;;
13560;SDS011;6852;51.686;5.314;2023-07-16T13:09:00;4.60;;;2.60;;
13560;SDS011;6852;51.686;5.314;2023-07-16T13:11:26;5.77;;;2.93;;
13560;SDS011;6852;51.686;5.314;2023-07-16T13:13:53;3.60;;;2.00;;
13560;SDS011;6852;51.686;5.314;2023-07-16T13:16:20;3.93;;;1.83;;
13560;SDS011;6852;51.686;5.314;2023-07-16T13:18:47;4.00;;;2.00;;
13560;SDS011;6852;51.686;5.314;2023-07-16T13:21:14;4.70;;;1.90;;
13560;SDS011;6852;51.686;5.314;2023-07-16T13:23:41;3.60;;;2.20;;
13560;SDS011;6852;51.686;5.314;2023-07-16T13:26:08;3.83;;;1.90;;
13560;SDS011;6852;51.686;5.314;2023-07-16T13:28:34;4.90;;;2.20;;
13560;SDS011;6852;51.686;5.314;2023-07-16T13:31:01;3.27;;;1.80;;
13560;SDS011;6852;51.686;5.314;2023-07-16T13:33:28;3.67;;;1.90;;
13560;SDS011;6852;51.686;5.314;2023-07-16T13:35:55;3.57;;;1.73;;
13560;SDS011;6852;51.686;5.314;2023-07-16T13:38:23;2.07;;;1.67;;
13560;SDS011;6852;51.686;5.314;2023-07-16T13:40:50;2.37;;;1.50;;
13560;SDS011;6852;51.686;5.314;2023-07-16T13:43:17;3.57;;;1.53;;
13560;SDS011;6852;51.686;5.314;2023-07-16T13:45:44;2.43;;;1.43;;
13560;SDS011;6852;51.686;5.314;2023-07-16T13:48:11;3.27;;;1.70;;
13560;SDS011;6852;51.686;5.314;2023-07-16T13:50:37;4.23;;;1.70;;
13560;SDS011;6852;51.686;5.314;2023-07-16T13:53:04;6.20;;;1.80;;
13560;SDS011;6852;51.686;5.314;2023-07-16T13:55:31;3.23;;;1.80;;
13560;SDS011;6852;51.686;5.314;2023-07-16T13:57:58;2.17;;;1.33;;
13560;SDS011;6852;51.686;5.314;2023-07-16T14:00:25;2.77;;;1.57;;
13560;SDS011;6852;51.686;5.314;2023-07-16T14:02:52;2.70;;;1.40;;
13560;SDS011;6852;51.686;5.314;2023-07-16T14:05:19;2.43;;;1.50;;
13560;SDS011;6852;51.686;5.314;2023-07-16T14:07:47;3.37;;;1.50;;
13560;SDS011;6852;51.686;5.314;2023-07-16T14:10:13;2.47;;;1.80;;
13560;SDS011;6852;51.686;5.314;2023-07-16T14:12:43;3.97;;;1.70;;
13560;SDS011;6852;51.686;5.314;2023-07-16T14:15:10;4.73;;;1.70;;
13560;SDS011;6852;51.686;5.314;2023-07-16T14:17:37;4.20;;;1.60;;
13560;SDS011;6852;51.686;5.314;2023-07-16T14:20:04;4.93;;;1.87;;
13560;SDS011;6852;51.686;5.314;2023-07-16T14:22:32;3.87;;;1.50;;
13560;SDS011;6852;51.686;5.314;2023-07-16T14:24:59;3.47;;;1.87;;
13560;SDS011;6852;51.686;5.314;2023-07-16T14:27:26;4.03;;;2.20;;
13560;SDS011;6852;51.686;5.314;2023-07-16T14:29:53;3.93;;;1.70;;
13560;SDS011;6852;51.686;5.314;2023-07-16T14:32:31;2.83;;;1.60;;
13560;SDS011;6852;51.686;5.314;2023-07-16T14:34:58;4.07;;;1.70;;
13560;SDS011;6852;51.686;5.314;2023-07-16T14:37:26;5.33;;;1.80;;
13560;SDS011;6852;51.686;5.314;2023-07-16T14:39:53;4.93;;;1.70;;
13560;SDS011;6852;51.686;5.314;2023-07-16T14:42:20;2.60;;;1.80;;
13560;SDS011;6852;51.686;5.314;2023-07-16T14:44:47;4.10;;;2.20;;
13560;SDS011;6852;51.686;5.314;2023-07-16T14:47:14;4.17;;;2.10;;
13560;SDS011;6852;51.686;5.314;2023-07-16T14:49:41;4.73;;;1.90;;
13560;SDS011;6852;51.686;5.314;2023-07-16T14:52:08;3.93;;;2.13;;
13560;SDS011;6852;51.686;5.314;2023-07-16T14:54:35;4.37;;;2.10;;
13560;SDS011;6852;51.686;5.314;2023-07-16T14:57:02;2.97;;;1.90;;
13560;SDS011;6852;51.686;5.314;2023-07-16T14:59:30;4.53;;;2.27;;
13560;SDS011;6852;51.686;5.314;2023-07-16T15:01:57;4.33;;;2.60;;
13560;SDS011;6852;51.686;5.314;2023-07-16T15:04:24;4.77;;;2.47;;
13560;SDS011;6852;51.686;5.314;2023-07-16T15:06:51;4.93;;;2.43;;
13560;SDS011;6852;51.686;5.314;2023-07-16T15:09:18;6.47;;;2.57;;
13560;SDS011;6852;51.686;5.314;2023-07-16T15:11:45;6.90;;;3.10;;
13560;SDS011;6852;51.686;5.314;2023-07-16T15:14:11;3.57;;;2.53;;
13560;SDS011;6852;51.686;5.314;2023-07-16T15:16:39;4.10;;;2.67;;
13560;SDS011;6852;51.686;5.314;2023-07-16T15:19:06;4.53;;;2.70;;
13560;SDS011;6852;51.686;5.314;2023-07-16T15:21:34;3.87;;;2.63;;
13560;SDS011;6852;51.686;5.314;2023-07-16T15:24:07;5.70;;;2.70;;
13560;SDS011;6852;51.686;5.314;2023-07-16T15:26:34;5.33;;;2.37;;